createdAt,value
2023-11-12T00:01:07.572Z,91.49
2023-11-12T00:04:15.847Z,91.69
2023-11-12T00:07:25.717Z,90.81
2023-11-12T00:10:36.055Z,91.00
2023-11-12T00:13:43.350Z,91.86
2023-11-12T00:16:51.578Z,91.15
2023-11-12T00:20:00.841Z,91.94
2023-11-12T00:23:13.953Z,91.17
2023-11-12T00:26:22.775Z,91.47
2023-11-12T00:29:35.439Z,91.31
2023-11-12T00:32:42.741Z,91.25
2023-11-12T00:35:51.010Z,91.88
2023-11-12T00:39:00.837Z,91.47
2023-11-12T00:42:29.250Z,91.69
2023-11-12T00:45:36.522Z,91.59
2023-11-12T00:48:45.679Z,91.66
2023-11-12T00:51:53.074Z,91.69
2023-11-12T00:55:03.802Z,91.47
2023-11-12T00:58:11.360Z,91.11
2023-11-12T01:01:36.921Z,91.22
2023-11-12T01:04:44.401Z,90.58
2023-11-12T01:07:53.631Z,91.02
2023-11-12T01:11:03.658Z,90.60
2023-11-12T01:14:18.326Z,91.10
2023-11-12T01:17:25.902Z,91.29
2023-11-12T01:20:54.031Z,91.20
2023-11-12T01:24:04.745Z,91.62
2023-11-12T01:27:23.115Z,91.13
2023-11-12T01:30:32.966Z,90.71
2023-11-12T01:33:41.236Z,91.20
2023-11-12T01:36:48.524Z,91.13
2023-11-12T01:39:56.849Z,91.12
2023-11-12T01:43:06.785Z,91.56
2023-11-12T01:46:15.397Z,91.74
2023-11-12T01:49:25.083Z,91.78
2023-11-12T01:52:34.322Z,92.09
2023-11-12T01:55:42.168Z,92.44
2023-11-12T01:58:56.698Z,92.30
2023-11-12T02:02:04.640Z,91.92
2023-11-12T02:05:13.051Z,92.06
2023-11-12T02:08:23.454Z,91.93
2023-11-12T02:11:32.016Z,91.77
2023-11-12T02:14:41.962Z,91.92
2023-11-12T02:17:50.572Z,92.30
2023-11-12T02:20:58.224Z,92.24
2023-11-12T02:24:10.694Z,92.23
2023-11-12T02:27:18.186Z,91.95
2023-11-12T02:30:27.711Z,92.10
2023-11-12T02:33:35.688Z,91.60
2023-11-12T02:36:43.726Z,91.94
2023-11-12T02:40:01.050Z,91.54
2023-11-12T02:43:11.343Z,92.14
2023-11-12T02:46:19.412Z,92.03
2023-11-12T02:49:48.415Z,91.72
2023-11-12T02:52:59.463Z,91.65
2023-11-12T02:56:10.426Z,91.17
2023-11-12T02:59:18.440Z,90.27
2023-11-12T03:02:26.350Z,90.44
2023-11-12T03:05:35.753Z,90.01
2023-11-12T03:08:45.837Z,90.36
2023-11-12T03:11:57.184Z,90.55
2023-11-12T03:15:05.885Z,90.31
2023-11-12T03:18:14.071Z,90.01
2023-11-12T03:21:21.442Z,89.59
2023-11-12T03:24:29.577Z,89.61
2023-11-12T03:27:40.243Z,89.76
2023-11-12T03:30:48.625Z,89.13
2023-11-12T03:33:55.916Z,89.89
2023-11-12T03:37:04.083Z,90.16
2023-11-12T03:40:13.609Z,90.21
2023-11-12T03:43:24.206Z,90.59
2023-11-12T03:46:31.688Z,90.43
2023-11-12T03:49:46.048Z,90.97
2023-11-12T03:52:53.313Z,90.28
2023-11-12T03:56:01.320Z,90.43
2023-11-12T03:59:11.120Z,90.41
2023-11-12T04:02:19.865Z,90.88
2023-11-12T04:05:27.115Z,91.01
2023-11-12T04:08:35.177Z,91.09
2023-11-12T04:11:43.316Z,91.05
2023-11-12T04:14:54.316Z,90.69
2023-11-12T04:18:01.769Z,90.93
2023-11-12T04:21:09.959Z,91.21
2023-11-12T04:24:35.670Z,91.39
2023-11-12T04:27:43.808Z,91.37
2023-11-12T04:30:53.714Z,91.48
2023-11-12T04:34:02.164Z,91.33
2023-11-12T04:37:09.887Z,91.67
2023-11-12T04:40:37.048Z,91.75
2023-11-12T04:43:50.296Z,92.08
2023-11-12T04:47:01.081Z,91.97
2023-11-12T04:50:28.030Z,92.04
2023-11-12T04:53:56.536Z,91.62
2023-11-12T04:57:05.327Z,91.30
2023-11-12T05:00:15.126Z,91.90
2023-11-12T05:03:24.988Z,91.75
2023-11-12T05:06:33.181Z,91.59
2023-11-12T05:09:41.430Z,91.71
2023-11-12T05:12:49.619Z,91.34
2023-11-12T05:15:58.190Z,91.63
2023-11-12T05:19:09.086Z,91.86
2023-11-12T05:22:16.257Z,92.20
2023-11-12T05:25:24.565Z,92.61
2023-11-12T05:28:32.010Z,91.14
2023-11-12T05:31:40.300Z,91.71
2023-11-12T05:34:51.520Z,91.52
2023-11-12T05:37:59.613Z,91.69
2023-11-12T05:41:07.463Z,91.42
2023-11-12T05:44:15.466Z,91.39
2023-11-12T05:47:23.841Z,92.06
2023-11-12T05:50:41.596Z,91.71
2023-11-12T05:53:48.883Z,91.36
2023-11-12T05:56:57.117Z,91.66
2023-11-12T06:00:28.099Z,90.81
2023-11-12T06:03:57.242Z,90.67
2023-11-12T06:07:07.661Z,91.00
2023-11-12T06:10:31.064Z,91.26
2023-11-12T06:13:39.476Z,90.67
2023-11-12T06:16:47.522Z,90.91
2023-11-12T06:19:54.874Z,90.45
2023-11-12T06:23:18.104Z,90.91
2023-11-12T06:26:37.674Z,90.04
2023-11-12T06:29:45.821Z,90.25
2023-11-12T06:32:53.049Z,90.39
2023-11-12T06:36:01.127Z,90.43
2023-11-12T06:39:14.934Z,90.34
2023-11-12T06:42:25.019Z,90.49
2023-11-12T06:45:33.332Z,89.77
2023-11-12T06:48:41.433Z,89.78
2023-11-12T06:51:52.133Z,89.89
2023-11-12T06:55:05.824Z,89.51
2023-11-12T06:58:12.928Z,89.11
2023-11-12T07:01:20.942Z,89.48
2023-11-12T07:04:28.418Z,89.17
2023-11-12T07:07:36.552Z,88.99
2023-11-12T07:10:46.429Z,89.05
2023-11-12T07:13:54.504Z,88.69
2023-11-12T07:17:08.019Z,88.59
2023-11-12T07:20:41.240Z,88.28
2023-11-12T07:23:48.532Z,87.92
2023-11-12T07:26:59.245Z,88.44
2023-11-12T07:30:06.892Z,88.67
2023-11-12T07:33:15.022Z,88.28
2023-11-12T07:36:22.949Z,87.49
2023-11-12T07:39:31.169Z,87.73
2023-11-12T07:42:42.214Z,87.85
2023-11-12T07:45:50.564Z,88.02
2023-11-12T07:48:58.666Z,88.12
2023-11-12T07:52:07.374Z,87.79
2023-11-12T07:55:14.546Z,87.91
2023-11-12T07:58:25.314Z,87.54
2023-11-12T08:01:47.091Z,87.12
2023-11-12T08:05:15.465Z,87.06
2023-11-12T08:08:24.593Z,86.97
2023-11-12T08:11:32.778Z,86.84
2023-11-12T08:14:50.795Z,85.63
2023-11-12T08:18:00.995Z,85.23
2023-11-12T08:21:09.084Z,85.79
2023-11-12T08:24:17.506Z,84.62
2023-11-12T08:27:31.125Z,84.22
2023-11-12T08:30:59.384Z,83.98
2023-11-12T08:34:07.035Z,82.90
2023-11-12T08:37:15.443Z,83.26
2023-11-12T08:40:23.049Z,82.71
2023-11-12T08:43:31.219Z,81.69
2023-11-12T08:46:41.251Z,81.76
2023-11-12T08:49:49.425Z,80.73
2023-11-12T08:52:58.540Z,80.71
2023-11-12T08:56:07.780Z,79.86
2023-11-12T08:59:21.972Z,79.13
2023-11-12T09:02:39.103Z,78.50
2023-11-12T09:05:46.374Z,76.01
2023-11-12T09:08:54.577Z,76.34
2023-11-12T09:12:01.872Z,75.84
2023-11-12T09:15:12.719Z,74.34
2023-11-12T09:18:28.608Z,73.62
2023-11-12T09:21:36.949Z,70.42
2023-11-12T09:25:00.448Z,71.60
2023-11-12T09:28:15.491Z,70.80
2023-11-12T09:31:23.582Z,70.33
2023-11-12T09:34:35.873Z,70.30
2023-11-12T09:37:43.300Z,70.33
2023-11-12T09:40:59.826Z,70.72
2023-11-12T09:44:11.248Z,71.60
2023-11-12T09:47:46.757Z,71.07
2023-11-12T09:50:57.118Z,70.94
2023-11-12T09:54:06.840Z,72.55
2023-11-12T09:57:18.020Z,71.90
2023-11-12T10:00:26.323Z,72.18
2023-11-12T10:03:39.233Z,71.73
2023-11-12T10:06:51.727Z,71.81
2023-11-12T10:09:59.380Z,71.94
2023-11-12T10:13:26.081Z,71.33
2023-11-12T10:16:50.680Z,70.60
2023-11-12T10:20:00.630Z,68.59
2023-11-12T10:23:33.522Z,68.83
2023-11-12T10:27:09.300Z,68.10
2023-11-12T10:30:30.863Z,68.57
2023-11-12T10:33:58.115Z,67.02
2023-11-12T10:37:28.075Z,67.76
2023-11-12T10:41:13.377Z,68.42
2023-11-12T10:44:21.044Z,68.93
2023-11-12T10:47:31.739Z,69.54
2023-11-12T10:50:43.252Z,68.64
2023-11-12T10:54:09.530Z,68.08
2023-11-12T10:57:22.857Z,68.41
2023-11-12T11:00:31.683Z,67.79
2023-11-12T11:03:47.072Z,67.42
2023-11-12T11:07:11.123Z,68.13
2023-11-12T11:10:19.297Z,69.61
2023-11-12T11:13:44.196Z,68.76
2023-11-12T11:16:59.457Z,69.39
2023-11-12T11:20:13.617Z,69.96
2023-11-12T11:23:44.660Z,70.09
2023-11-12T11:27:16.518Z,70.63
2023-11-12T11:30:31.594Z,71.35
2023-11-12T11:33:52.793Z,70.98
2023-11-12T11:37:13.986Z,71.66
2023-11-12T11:40:38.014Z,71.29
2023-11-12T11:43:46.168Z,71.23
2023-11-12T11:47:28.098Z,72.00
2023-11-12T11:50:57.412Z,71.88
2023-11-12T11:54:09.166Z,71.88
2023-11-12T11:57:25.743Z,72.45
2023-11-12T12:00:33.956Z,71.85
2023-11-12T12:03:44.071Z,72.30
2023-11-12T12:06:52.947Z,72.21
2023-11-12T12:10:02.038Z,72.93
2023-11-12T12:13:16.680Z,72.72
2023-11-12T12:16:30.575Z,72.89
2023-11-12T12:19:41.894Z,72.14
2023-11-12T12:22:50.963Z,72.03
2023-11-12T12:26:00.759Z,71.19
2023-11-12T12:29:26.890Z,70.86
2023-11-12T12:32:47.201Z,70.93
2023-11-12T12:36:02.182Z,71.02
2023-11-12T12:39:31.247Z,71.75
2023-11-12T12:43:06.167Z,72.35
2023-11-12T12:46:16.809Z,72.30
2023-11-12T12:49:36.464Z,72.89
2023-11-12T12:52:49.347Z,72.76
2023-11-12T12:55:57.466Z,72.79
2023-11-12T12:59:05.547Z,73.32
2023-11-12T13:02:13.409Z,73.51
2023-11-12T13:05:26.998Z,73.30
2023-11-12T13:08:36.801Z,73.43
2023-11-12T13:11:50.181Z,73.17
2023-11-12T13:15:00.233Z,73.14
2023-11-12T13:18:08.871Z,73.03
2023-11-12T13:21:20.697Z,72.04
2023-11-12T13:24:31.526Z,72.26
2023-11-12T13:27:43.578Z,72.33
2023-11-12T13:30:54.664Z,72.70
2023-11-12T13:34:03.671Z,71.73
2023-11-12T13:37:12.144Z,72.02
2023-11-12T13:40:32.482Z,72.22
2023-11-12T13:43:44.823Z,72.56
2023-11-12T13:46:54.829Z,73.16
2023-11-12T13:50:11.131Z,73.72
2023-11-12T13:53:37.501Z,73.51
2023-11-12T13:56:49.245Z,73.44
2023-11-12T14:00:00.412Z,73.74
2023-11-12T14:03:14.865Z,73.95
2023-11-12T14:06:23.359Z,74.61
2023-11-12T14:09:37.354Z,75.32
2023-11-12T14:12:48.508Z,75.85
2023-11-12T14:15:59.785Z,76.12
2023-11-12T14:19:12.108Z,76.44
2023-11-12T14:22:20.547Z,76.73
2023-11-12T14:25:27.840Z,77.32
2023-11-12T14:28:40.319Z,77.79
2023-11-12T14:31:47.713Z,77.90
2023-11-12T14:34:56.327Z,78.24
2023-11-12T14:38:11.967Z,78.81
2023-11-12T14:41:22.231Z,78.80
2023-11-12T14:44:34.718Z,78.90
2023-11-12T14:47:43.539Z,78.88
2023-11-12T14:50:51.446Z,78.84
2023-11-12T14:54:04.276Z,78.84
2023-11-12T14:57:24.394Z,77.83
2023-11-12T15:00:36.783Z,77.37
2023-11-12T15:03:49.199Z,77.58
2023-11-12T15:06:57.667Z,78.24
2023-11-12T15:10:04.946Z,79.09
2023-11-12T15:13:13.362Z,79.50
2023-11-12T15:16:37.258Z,79.27
2023-11-12T15:19:58.622Z,81.34
2023-11-12T15:23:06.175Z,81.30
2023-11-12T15:26:18.571Z,81.85
2023-11-12T15:29:25.867Z,81.22
2023-11-12T15:32:36.567Z,80.75
2023-11-12T15:35:43.813Z,80.52
2023-11-12T15:39:00.912Z,80.48
2023-11-12T15:42:28.633Z,80.88
2023-11-12T15:45:36.803Z,80.37
2023-11-12T15:49:07.207Z,80.17
2023-11-12T15:52:18.702Z,80.74
2023-11-12T15:55:30.830Z,80.69
2023-11-12T15:58:39.004Z,80.65
2023-11-12T16:01:46.379Z,80.59
2023-11-12T16:04:57.200Z,80.05
2023-11-12T16:08:04.600Z,79.48
2023-11-12T16:11:19.080Z,79.44
2023-11-12T16:14:26.384Z,78.90
2023-11-12T16:17:36.815Z,77.39
2023-11-12T16:20:46.996Z,77.44
2023-11-12T16:23:55.295Z,77.86
2023-11-12T16:27:09.246Z,76.75
2023-11-12T16:30:25.839Z,77.33
2023-11-12T16:33:33.937Z,76.99
2023-11-12T16:36:44.876Z,76.84
2023-11-12T16:39:54.891Z,76.03
2023-11-12T16:43:04.441Z,75.72
2023-11-12T16:46:18.111Z,76.40
2023-11-12T16:49:45.155Z,75.92
2023-11-12T16:52:58.439Z,75.95
2023-11-12T16:56:06.790Z,76.17
2023-11-12T16:59:20.218Z,76.21
2023-11-12T17:02:43.283Z,76.44
2023-11-12T17:06:22.226Z,76.62
2023-11-12T17:09:53.052Z,77.48
2023-11-12T17:13:00.315Z,76.95
2023-11-12T17:16:16.280Z,77.69
2023-11-12T17:20:03.224Z,77.65
2023-11-12T17:23:11.550Z,78.55
2023-11-12T17:26:21.599Z,77.87
2023-11-12T17:29:30.233Z,78.00
2023-11-12T17:32:48.697Z,77.26
2023-11-12T17:35:56.739Z,77.17
2023-11-12T17:39:04.521Z,77.13
2023-11-12T17:42:15.314Z,76.58
2023-11-12T17:45:24.465Z,76.52
2023-11-12T17:48:33.234Z,76.48
2023-11-12T17:51:40.551Z,76.26
2023-11-12T17:54:48.988Z,76.59
2023-11-12T17:58:18.176Z,76.21
2023-11-12T18:01:33.886Z,76.69
2023-11-12T18:04:41.586Z,76.40
2023-11-12T18:07:49.772Z,76.68
2023-11-12T18:10:58.614Z,76.89
2023-11-12T18:14:17.090Z,77.29
2023-11-12T18:17:32.429Z,77.45
2023-11-12T18:20:42.307Z,77.22
2023-11-12T18:23:49.898Z,76.55
2023-11-12T18:27:10.162Z,76.67
2023-11-12T18:30:39.825Z,76.38
2023-11-12T18:33:56.446Z,76.15
2023-11-12T18:37:14.479Z,76.24
2023-11-12T18:40:41.165Z,76.35
2023-11-12T18:44:07.060Z,76.45
2023-11-12T18:47:17.801Z,76.95
2023-11-12T18:50:38.473Z,77.70
2023-11-12T18:53:59.592Z,77.67
2023-11-12T18:57:07.987Z,77.91
2023-11-12T19:00:25.892Z,78.12
2023-11-12T19:03:36.270Z,78.31
2023-11-12T19:06:48.002Z,78.50
2023-11-12T19:09:55.653Z,78.43
2023-11-12T19:13:05.083Z,79.19
2023-11-12T19:16:13.266Z,78.99
2023-11-12T19:19:26.284Z,79.46
2023-11-12T19:22:33.783Z,79.70
2023-11-12T19:25:44.562Z,79.81
2023-11-12T19:28:52.977Z,80.13
2023-11-12T19:32:02.393Z,80.13
2023-11-12T19:35:13.107Z,80.23
2023-11-12T19:38:21.449Z,80.27
2023-11-12T19:41:29.898Z,80.91
2023-11-12T19:44:38.323Z,80.95
2023-11-12T19:47:49.450Z,81.38
2023-11-12T19:51:00.216Z,81.44
2023-11-12T19:54:08.055Z,81.48
2023-11-12T19:57:19.537Z,81.48
2023-11-12T20:00:27.720Z,81.41
2023-11-12T20:03:39.345Z,81.08
2023-11-12T20:06:49.307Z,81.51
2023-11-12T20:09:57.482Z,81.11
2023-11-12T20:13:04.782Z,81.30
2023-11-12T20:16:13.375Z,81.37
2023-11-12T20:19:21.012Z,81.31
2023-11-12T20:22:33.515Z,81.10
2023-11-12T20:25:40.847Z,81.17
2023-11-12T20:28:56.819Z,81.12
2023-11-12T20:32:15.615Z,81.17
2023-11-12T20:35:24.232Z,81.20
2023-11-12T20:38:36.207Z,81.51
2023-11-12T20:41:44.697Z,81.78
2023-11-12T20:44:52.289Z,81.35
2023-11-12T20:48:03.336Z,81.39
2023-11-12T20:51:21.834Z,81.26
2023-11-12T20:54:32.514Z,81.05
2023-11-12T20:58:00.424Z,81.25
2023-11-12T21:01:17.408Z,81.16
2023-11-12T21:04:26.246Z,80.89
2023-11-12T21:07:54.275Z,81.13
2023-11-12T21:11:25.264Z,81.53
2023-11-12T21:15:01.913Z,81.29
2023-11-12T21:18:13.210Z,81.36
2023-11-12T21:21:22.166Z,81.55
2023-11-12T21:24:29.975Z,81.25
2023-11-12T21:27:44.858Z,81.81
2023-11-12T21:30:52.637Z,81.64
2023-11-12T21:34:01.414Z,81.94
2023-11-12T21:37:09.670Z,81.91
2023-11-12T21:40:18.060Z,81.71
2023-11-12T21:43:29.041Z,81.05
2023-11-12T21:46:37.316Z,81.05
2023-11-12T21:49:47.715Z,80.65
2023-11-12T21:52:59.115Z,80.17
2023-11-12T21:56:09.051Z,80.13
2023-11-12T21:59:21.280Z,80.20
2023-11-12T22:02:30.263Z,80.13
2023-11-12T22:05:58.223Z,80.37
2023-11-12T22:09:15.085Z,80.26
2023-11-12T22:12:42.219Z,80.57
2023-11-12T22:16:00.659Z,80.66
2023-11-12T22:19:29.241Z,80.42
2023-11-12T22:22:57.372Z,80.20
2023-11-12T22:26:09.017Z,80.37
2023-11-12T22:29:16.332Z,80.11
2023-11-12T22:32:28.993Z,80.65
2023-11-12T22:35:37.096Z,80.35
2023-11-12T22:38:45.187Z,80.47
2023-11-12T22:41:59.427Z,80.33
2023-11-12T22:45:15.688Z,80.00
2023-11-12T22:48:38.238Z,79.98
2023-11-12T22:51:51.872Z,79.76
2023-11-12T22:55:08.040Z,78.91
2023-11-12T22:58:16.134Z,78.89
2023-11-12T23:01:40.095Z,78.56
2023-11-12T23:05:00.223Z,78.64
2023-11-12T23:08:28.255Z,78.87
2023-11-12T23:11:37.549Z,79.60
2023-11-12T23:14:44.808Z,79.66
2023-11-12T23:18:00.003Z,79.22
2023-11-12T23:21:11.591Z,78.64
2023-11-12T23:24:19.912Z,78.74
2023-11-12T23:27:33.722Z,79.22
2023-11-12T23:30:45.096Z,78.55
2023-11-12T23:33:56.325Z,78.31
2023-11-12T23:37:08.113Z,77.91
2023-11-12T23:40:18.011Z,77.74
2023-11-12T23:43:26.311Z,77.57
2023-11-12T23:46:33.673Z,76.63
2023-11-12T23:49:41.733Z,76.79
2023-11-12T23:53:06.093Z,77.23
2023-11-12T23:56:34.290Z,77.79
